createdAt,value
2023-04-15T00:01:02.741Z,77.34
2023-04-15T00:03:30.247Z,77.77
2023-04-15T00:05:58.072Z,78.34
2023-04-15T00:08:25.612Z,77.93
2023-04-15T00:10:54.242Z,77.97
2023-04-15T00:13:21.201Z,78.54
2023-04-15T00:15:48.196Z,78.25
2023-04-15T00:18:15.233Z,77.62
2023-04-15T00:20:42.451Z,77.36
2023-04-15T00:23:09.493Z,79.03
2023-04-15T00:25:36.766Z,79.08
2023-04-15T00:28:05.334Z,78.35
2023-04-15T00:30:32.485Z,78.85
2023-04-15T00:32:59.649Z,78.36
2023-04-15T00:35:26.688Z,78.86
2023-04-15T00:37:53.996Z,78.96
2023-04-15T00:40:21.914Z,78.96
2023-04-15T00:42:49.949Z,79.79
2023-04-15T00:45:19.093Z,79.12
2023-04-15T00:47:46.342Z,78.61
2023-04-15T00:50:13.317Z,77.66
2023-04-15T00:52:40.905Z,78.19
2023-04-15T00:55:09.690Z,79.31
2023-04-15T00:57:37.079Z,78.09
2023-04-15T01:00:05.765Z,79.85
2023-04-15T01:02:34.128Z,80.24
2023-04-15T01:05:02.371Z,81.18
2023-04-15T01:07:29.457Z,80.33
2023-04-15T01:09:56.935Z,80.27
2023-04-15T01:12:25.483Z,80.63
2023-04-15T01:14:52.910Z,80.94
2023-04-15T01:17:21.029Z,80.72
2023-04-15T01:19:49.632Z,81.32
2023-04-15T01:22:16.499Z,80.96
2023-04-15T01:24:46.693Z,79.41
2023-04-15T01:27:15.928Z,79.65
2023-04-15T01:29:43.148Z,79.74
2023-04-15T01:32:10.136Z,80.91
2023-04-15T01:34:37.086Z,80.61
2023-04-15T01:37:04.043Z,79.94
2023-04-15T01:39:31.146Z,79.47
2023-04-15T01:41:58.212Z,79.26
2023-04-15T01:44:26.730Z,79.71
2023-04-15T01:46:53.702Z,78.78
2023-04-15T01:49:20.820Z,79.37
2023-04-15T01:51:48.127Z,78.20
2023-04-15T01:54:15.093Z,79.18
2023-04-15T01:56:42.377Z,79.64
2023-04-15T01:59:09.983Z,79.61
2023-04-15T02:01:39.791Z,78.58
2023-04-15T02:04:07.448Z,79.06
2023-04-15T02:06:34.483Z,78.32
2023-04-15T02:09:01.757Z,78.62
2023-04-15T02:11:29.084Z,79.09
2023-04-15T02:13:56.965Z,79.79
2023-04-15T02:16:26.142Z,78.81
2023-04-15T02:18:54.533Z,79.56
2023-04-15T02:21:21.668Z,80.26
2023-04-15T02:23:48.888Z,79.88
2023-04-15T02:26:15.958Z,79.97
2023-04-15T02:28:43.082Z,79.55
2023-04-15T02:31:10.160Z,79.49
2023-04-15T02:33:37.902Z,79.18
2023-04-15T02:36:07.634Z,79.02
2023-04-15T02:38:34.648Z,78.79
2023-04-15T02:41:01.710Z,78.53
2023-04-15T02:43:28.789Z,79.37
2023-04-15T02:45:55.946Z,79.29
2023-04-15T02:48:23.015Z,79.51
2023-04-15T02:50:49.955Z,79.21
2023-04-15T02:53:20.113Z,79.51
2023-04-15T02:55:47.188Z,79.20
2023-04-15T02:58:14.572Z,78.38
2023-04-15T03:00:41.915Z,77.08
2023-04-15T03:03:09.160Z,77.00
2023-04-15T03:05:38.992Z,76.86
2023-04-15T03:08:06.709Z,76.28
2023-04-15T03:10:35.053Z,76.59
2023-04-15T03:13:02.258Z,77.01
2023-04-15T03:15:29.508Z,77.04
2023-04-15T03:17:56.651Z,76.91
2023-04-15T03:20:24.139Z,76.78
2023-04-15T03:22:51.724Z,76.97
2023-04-15T03:25:20.467Z,77.69
2023-04-15T03:27:48.843Z,77.86
2023-04-15T03:30:17.265Z,77.45
2023-04-15T03:32:44.360Z,77.17
2023-04-15T03:35:11.400Z,76.50
2023-04-15T03:37:38.346Z,76.86
2023-04-15T03:40:06.349Z,76.98
2023-04-15T03:42:33.319Z,77.47
2023-04-15T03:45:01.725Z,77.46
2023-04-15T03:47:28.726Z,77.46
2023-04-15T03:49:55.767Z,77.00
2023-04-15T03:52:22.743Z,77.71
2023-04-15T03:54:49.956Z,78.34
2023-04-15T03:57:16.852Z,78.79
2023-04-15T03:59:44.006Z,78.84
2023-04-15T04:02:12.401Z,78.67
2023-04-15T04:04:39.573Z,79.06
2023-04-15T04:07:06.620Z,79.09
2023-04-15T04:09:33.594Z,79.47
2023-04-15T04:12:01.342Z,79.59
2023-04-15T04:14:29.911Z,78.14
2023-04-15T04:16:57.620Z,78.01
2023-04-15T04:19:26.334Z,78.13
2023-04-15T04:21:53.426Z,77.43
2023-04-15T04:24:20.665Z,77.60
2023-04-15T04:26:47.942Z,77.99
2023-04-15T04:29:14.922Z,77.95
2023-04-15T04:31:41.988Z,77.54
2023-04-15T04:34:08.973Z,78.57
2023-04-15T04:36:37.336Z,77.49
2023-04-15T04:39:04.291Z,77.94
2023-04-15T04:41:32.369Z,77.51
2023-04-15T04:43:59.483Z,77.99
2023-04-15T04:46:26.596Z,77.74
2023-04-15T04:48:53.478Z,78.00
2023-04-15T04:51:20.892Z,77.86
2023-04-15T04:53:49.300Z,77.87
2023-04-15T04:56:16.443Z,77.20
2023-04-15T04:58:46.835Z,78.21
2023-04-15T05:01:13.881Z,78.24
2023-04-15T05:03:41.054Z,77.16
2023-04-15T05:06:08.936Z,75.18
2023-04-15T05:08:36.711Z,76.97
2023-04-15T05:11:06.239Z,75.71
2023-04-15T05:13:33.290Z,74.99
2023-04-15T05:16:00.286Z,73.47
2023-04-15T05:18:27.446Z,70.81
2023-04-15T05:20:54.408Z,70.83
2023-04-15T05:23:21.396Z,69.00
2023-04-15T05:25:48.367Z,67.99
2023-04-15T05:28:17.085Z,65.78
2023-04-15T05:30:44.092Z,67.82
2023-04-15T05:33:11.160Z,67.04
2023-04-15T05:35:38.161Z,66.96
2023-04-15T05:38:05.207Z,65.04
2023-04-15T05:40:32.145Z,65.36
2023-04-15T05:42:59.180Z,66.14
2023-04-15T05:45:27.656Z,66.63
2023-04-15T05:47:54.701Z,66.08
2023-04-15T05:50:21.794Z,66.48
2023-04-15T05:52:48.891Z,67.03
2023-04-15T05:55:16.245Z,66.59
2023-04-15T05:57:43.162Z,67.43
2023-04-15T06:00:11.415Z,65.15
2023-04-15T06:02:40.001Z,66.57
2023-04-15T06:05:09.997Z,65.10
2023-04-15T06:07:37.181Z,64.51
2023-04-15T06:10:04.933Z,63.11
2023-04-15T06:12:32.042Z,63.97
2023-04-15T06:15:00.127Z,61.67
2023-04-15T06:17:27.621Z,62.39
2023-04-15T06:19:56.262Z,62.29
2023-04-15T06:22:23.508Z,62.01
2023-04-15T06:24:51.642Z,61.80
2023-04-15T06:27:19.115Z,61.75
2023-04-15T06:29:46.318Z,61.75
2023-04-15T06:32:13.527Z,59.46
2023-04-15T06:34:40.771Z,59.49
2023-04-15T06:37:11.189Z,58.41
2023-04-15T06:39:38.400Z,57.03
2023-04-15T06:42:05.429Z,58.78
2023-04-15T06:44:33.906Z,57.72
2023-04-15T06:47:01.348Z,56.63
2023-04-15T06:49:28.440Z,56.55
2023-04-15T06:51:55.674Z,56.90
2023-04-15T06:54:24.196Z,54.21
2023-04-15T06:56:51.616Z,56.12
2023-04-15T06:59:19.060Z,55.48
2023-04-15T07:01:46.562Z,54.93
2023-04-15T07:04:13.604Z,53.98
2023-04-15T07:06:41.902Z,53.25
2023-04-15T07:09:09.047Z,53.01
2023-04-15T07:11:37.375Z,50.71
2023-04-15T07:14:04.117Z,51.56
2023-04-15T07:16:31.250Z,52.55
2023-04-15T07:18:58.397Z,51.34
2023-04-15T07:21:25.772Z,51.38
2023-04-15T07:23:52.767Z,49.48
2023-04-15T07:26:19.773Z,49.56
2023-04-15T07:28:48.250Z,50.71
2023-04-15T07:31:16.580Z,48.58
2023-04-15T07:33:46.218Z,49.48
2023-04-15T07:36:13.550Z,50.56
2023-04-15T07:38:40.507Z,49.35
2023-04-15T07:41:07.666Z,47.85
2023-04-15T07:43:34.617Z,48.29
2023-04-15T07:46:02.970Z,47.40
2023-04-15T07:48:30.116Z,47.62
2023-04-15T07:50:57.022Z,46.77
2023-04-15T07:53:24.112Z,45.13
2023-04-15T07:55:51.031Z,44.89
2023-04-15T07:58:18.017Z,44.71
2023-04-15T08:00:45.309Z,45.31
2023-04-15T08:03:13.765Z,45.39
2023-04-15T08:05:41.092Z,43.21
2023-04-15T08:08:08.516Z,44.33
2023-04-15T08:10:35.719Z,41.94
2023-04-15T08:13:02.861Z,42.43
2023-04-15T08:15:29.840Z,42.20
2023-04-15T08:17:56.816Z,42.62
2023-04-15T08:20:25.398Z,42.42
2023-04-15T08:22:52.718Z,41.38
2023-04-15T08:25:22.672Z,41.63
2023-04-15T08:27:49.773Z,41.52
2023-04-15T08:30:16.901Z,40.73
2023-04-15T08:32:47.096Z,39.92
2023-04-15T08:35:14.559Z,40.15
2023-04-15T08:37:42.976Z,38.59
2023-04-15T08:40:11.680Z,38.30
2023-04-15T08:42:45.827Z,39.55
2023-04-15T08:45:13.342Z,36.41
2023-04-15T08:47:40.777Z,37.87
2023-04-15T08:50:09.976Z,37.61
2023-04-15T08:52:37.333Z,35.64
2023-04-15T08:55:08.505Z,32.78
2023-04-15T08:57:36.199Z,34.66
2023-04-15T09:00:05.683Z,36.08
2023-04-15T09:02:33.173Z,34.31
2023-04-15T09:05:00.997Z,35.69
2023-04-15T09:07:28.035Z,34.18
2023-04-15T09:09:54.956Z,34.07
2023-04-15T09:12:23.252Z,30.50
2023-04-15T09:14:50.354Z,25.50
2023-04-15T09:17:19.781Z,28.00
2023-04-15T09:19:46.825Z,31.88
2023-04-15T09:22:14.482Z,31.22
2023-04-15T09:24:43.410Z,32.06
2023-04-15T09:27:11.301Z,28.20
2023-04-15T09:29:41.791Z,27.59
2023-04-15T09:32:13.298Z,27.31
2023-04-15T09:34:40.641Z,27.78
2023-04-15T09:37:08.116Z,26.79
2023-04-15T09:39:48.916Z,27.07
2023-04-15T09:42:17.190Z,24.58
2023-04-15T09:44:45.574Z,25.29
2023-04-15T09:47:27.796Z,26.48
2023-04-15T09:49:58.589Z,27.26
2023-04-15T09:52:26.141Z,27.56
2023-04-15T09:54:55.469Z,27.57
2023-04-15T09:57:23.714Z,26.80
2023-04-15T09:59:52.527Z,26.99
2023-04-15T10:02:21.424Z,27.61
2023-04-15T10:04:49.662Z,28.75
2023-04-15T10:07:18.186Z,29.69
2023-04-15T10:09:47.017Z,29.53
2023-04-15T10:12:15.147Z,28.22
2023-04-15T10:14:43.091Z,28.33
2023-04-15T10:17:12.727Z,27.76
2023-04-15T10:19:40.754Z,27.96
2023-04-15T10:22:07.684Z,29.78
2023-04-15T10:24:34.679Z,30.28
2023-04-15T10:27:03.819Z,27.70
2023-04-15T10:29:30.768Z,28.63
2023-04-15T10:31:59.268Z,26.60
2023-04-15T10:34:28.090Z,24.62
2023-04-15T10:36:56.614Z,21.74
2023-04-15T10:39:42.969Z,24.95
2023-04-15T10:42:11.307Z,22.28
2023-04-15T10:44:39.099Z,22.63
2023-04-15T10:47:10.886Z,23.28
2023-04-15T10:49:45.134Z,23.67
2023-04-15T10:52:12.771Z,23.98
2023-04-15T10:54:39.947Z,22.61
2023-04-15T10:57:15.112Z,22.81
2023-04-15T11:00:13.068Z,22.19
2023-04-15T11:02:47.366Z,23.31
2023-04-15T11:05:16.935Z,21.19
2023-04-15T11:07:52.198Z,20.04
2023-04-15T11:10:52.960Z,19.94
2023-04-15T11:13:27.219Z,20.62
2023-04-15T11:15:58.458Z,22.18
2023-04-15T11:18:28.251Z,22.70
2023-04-15T11:20:57.690Z,24.96
2023-04-15T11:23:29.663Z,24.02
2023-04-15T11:25:58.020Z,23.04
2023-04-15T11:28:26.527Z,23.42
2023-04-15T11:30:55.646Z,23.36
2023-04-15T11:33:23.894Z,23.38
2023-04-15T11:36:09.454Z,22.79
2023-04-15T11:38:38.242Z,23.13
2023-04-15T11:41:05.194Z,22.01
2023-04-15T11:43:32.546Z,22.47
2023-04-15T11:46:01.370Z,22.09
2023-04-15T11:48:30.829Z,22.98
2023-04-15T11:51:01.407Z,23.20
2023-04-15T11:53:39.491Z,22.18
2023-04-15T11:56:07.837Z,22.99
2023-04-15T11:58:35.534Z,22.08
2023-04-15T12:01:03.033Z,21.61
2023-04-15T12:03:31.676Z,22.01
2023-04-15T12:06:15.041Z,22.58
2023-04-15T12:08:58.540Z,22.58
2023-04-15T12:11:44.469Z,23.43
2023-04-15T12:14:13.953Z,23.54
2023-04-15T12:16:49.075Z,24.55
2023-04-15T12:19:19.484Z,24.14
2023-04-15T12:21:48.258Z,23.99
2023-04-15T12:24:21.207Z,24.36
2023-04-15T12:26:50.068Z,23.23
2023-04-15T12:29:17.928Z,23.26
2023-04-15T12:31:52.963Z,23.40
2023-04-15T12:34:27.096Z,23.50
2023-04-15T12:36:54.255Z,23.27
2023-04-15T12:39:24.401Z,24.08
2023-04-15T12:41:51.688Z,23.87
2023-04-15T12:44:18.931Z,24.53
2023-04-15T12:46:46.291Z,23.78
2023-04-15T12:49:14.939Z,23.95
2023-04-15T12:51:42.129Z,24.12
2023-04-15T12:54:09.192Z,23.54
2023-04-15T12:56:37.585Z,23.94
2023-04-15T12:59:04.932Z,24.01
2023-04-15T13:01:31.925Z,23.22
2023-04-15T13:03:59.213Z,23.29
2023-04-15T13:06:26.317Z,22.94
2023-04-15T13:08:58.498Z,22.89
2023-04-15T13:11:26.076Z,24.26
2023-04-15T13:13:54.500Z,23.62
2023-04-15T13:16:22.049Z,23.44
2023-04-15T13:18:49.219Z,24.65
2023-04-15T13:21:17.000Z,24.09
2023-04-15T13:23:46.630Z,22.38
2023-04-15T13:26:13.560Z,22.23
2023-04-15T13:28:40.571Z,22.59
2023-04-15T13:31:09.034Z,22.01
2023-04-15T13:33:36.537Z,22.07
2023-04-15T13:36:03.632Z,22.22
2023-04-15T13:38:30.599Z,21.85
2023-04-15T13:40:57.643Z,21.58
2023-04-15T13:43:24.635Z,21.92
2023-04-15T13:45:51.990Z,22.33
2023-04-15T13:48:20.381Z,22.28
2023-04-15T13:50:47.311Z,22.29
2023-04-15T13:53:14.316Z,22.12
2023-04-15T13:55:42.763Z,22.23
2023-04-15T13:58:09.979Z,23.05
2023-04-15T14:00:37.106Z,22.93
2023-04-15T14:03:04.386Z,22.58
2023-04-15T14:05:33.263Z,22.75
2023-04-15T14:08:02.117Z,23.56
2023-04-15T14:10:29.381Z,23.31
2023-04-15T14:12:56.373Z,23.32
2023-04-15T14:15:23.408Z,23.73
2023-04-15T14:17:50.552Z,23.58
2023-04-15T14:20:17.740Z,23.15
2023-04-15T14:22:46.339Z,22.84
2023-04-15T14:25:23.033Z,23.60
2023-04-15T14:27:57.681Z,23.43
2023-04-15T14:30:24.664Z,24.46
2023-04-15T14:32:51.602Z,23.70
2023-04-15T14:35:18.698Z,23.91
2023-04-15T14:37:47.000Z,23.81
2023-04-15T14:40:14.063Z,24.65
2023-04-15T14:42:41.169Z,24.49
2023-04-15T14:45:09.552Z,24.43
2023-04-15T14:47:36.707Z,24.47
2023-04-15T14:50:04.035Z,24.29
2023-04-15T14:52:32.306Z,24.35
2023-04-15T14:55:00.881Z,23.92
2023-04-15T14:57:27.834Z,24.90
2023-04-15T14:59:56.734Z,25.43
2023-04-15T15:02:37.367Z,25.60
2023-04-15T15:05:05.628Z,26.12
2023-04-15T15:07:32.743Z,27.17
2023-04-15T15:10:01.163Z,27.06
2023-04-15T15:12:28.187Z,26.81
2023-04-15T15:14:55.547Z,26.21
2023-04-15T15:17:22.692Z,26.58
2023-04-15T15:19:49.809Z,27.52
2023-04-15T15:22:17.632Z,26.81
2023-04-15T15:24:45.898Z,27.29
2023-04-15T15:27:14.252Z,27.19
2023-04-15T15:29:41.384Z,27.02
2023-04-15T15:32:08.397Z,26.84
2023-04-15T15:34:35.345Z,26.39
2023-04-15T15:37:02.366Z,27.16
2023-04-15T15:39:29.375Z,27.32
2023-04-15T15:41:56.532Z,26.85
2023-04-15T15:44:24.966Z,26.98
2023-04-15T15:46:52.050Z,26.96
2023-04-15T15:49:19.803Z,26.65
2023-04-15T15:51:46.851Z,26.43
2023-04-15T15:54:13.861Z,26.45
2023-04-15T15:56:42.161Z,26.76
2023-04-15T15:59:09.160Z,26.50
2023-04-15T16:01:37.596Z,25.99
2023-04-15T16:04:04.684Z,25.71
2023-04-15T16:06:34.446Z,25.86
2023-04-15T16:09:02.346Z,25.96
2023-04-15T16:11:29.489Z,25.84
2023-04-15T16:13:56.555Z,25.66
2023-04-15T16:16:24.336Z,25.97
2023-04-15T16:18:52.782Z,26.21
2023-04-15T16:21:20.373Z,26.09
2023-04-15T16:23:47.484Z,25.99
2023-04-15T16:26:14.472Z,25.92
2023-04-15T16:28:41.639Z,26.01
2023-04-15T16:31:08.731Z,26.16
2023-04-15T16:33:35.766Z,26.64
2023-04-15T16:36:04.867Z,26.63
2023-04-15T16:38:31.997Z,26.81
2023-04-15T16:41:00.828Z,27.05
2023-04-15T16:43:28.060Z,26.93
2023-04-15T16:45:55.233Z,27.37
2023-04-15T16:48:22.275Z,28.15
2023-04-15T16:50:49.452Z,28.64
2023-04-15T16:53:17.868Z,28.59
2023-04-15T16:55:44.880Z,29.25
2023-04-15T16:58:11.950Z,30.39
2023-04-15T17:00:38.986Z,29.81
2023-04-15T17:03:06.472Z,30.16
2023-04-15T17:05:33.736Z,31.35
2023-04-15T17:08:00.757Z,31.41
2023-04-15T17:10:29.235Z,32.85
2023-04-15T17:12:56.858Z,32.86
2023-04-15T17:15:23.995Z,33.33
2023-04-15T17:17:51.075Z,33.93
2023-04-15T17:20:18.446Z,33.21
2023-04-15T17:22:45.803Z,34.18
2023-04-15T17:25:13.580Z,34.82
2023-04-15T17:27:41.989Z,34.24
2023-04-15T17:30:09.834Z,33.55
2023-04-15T17:32:37.289Z,34.77
2023-04-15T17:35:06.567Z,35.79
2023-04-15T17:37:33.879Z,34.67
2023-04-15T17:40:00.944Z,35.11
2023-04-15T17:42:27.919Z,37.51
2023-04-15T17:44:56.375Z,38.14
2023-04-15T17:47:23.627Z,37.24
2023-04-15T17:49:50.603Z,36.31
2023-04-15T17:52:17.659Z,35.22
2023-04-15T17:54:45.837Z,37.22
2023-04-15T17:57:12.773Z,39.73
2023-04-15T17:59:43.961Z,40.16
2023-04-15T18:02:12.653Z,40.00
2023-04-15T18:04:39.890Z,39.56
2023-04-15T18:07:07.007Z,39.85
2023-04-15T18:09:34.096Z,40.76
2023-04-15T18:12:02.176Z,40.63
2023-04-15T18:14:34.616Z,41.42
2023-04-15T18:17:02.452Z,41.95
2023-04-15T18:19:31.780Z,41.62
2023-04-15T18:22:00.233Z,42.34
2023-04-15T18:24:27.810Z,41.76
2023-04-15T18:26:54.849Z,41.64
2023-04-15T18:29:22.047Z,42.56
2023-04-15T18:31:49.146Z,43.83
2023-04-15T18:34:16.179Z,43.50
2023-04-15T18:36:44.507Z,43.28
2023-04-15T18:39:11.228Z,43.60
2023-04-15T18:41:38.349Z,45.38
2023-04-15T18:44:05.536Z,45.76
2023-04-15T18:46:32.484Z,44.33
2023-04-15T18:48:59.506Z,45.10
2023-04-15T18:51:27.462Z,45.28
2023-04-15T18:53:56.056Z,44.89
2023-04-15T18:56:22.750Z,45.81
2023-04-15T18:59:08.863Z,46.24
2023-04-15T19:01:36.848Z,45.55
2023-04-15T19:04:04.029Z,46.51
2023-04-15T19:06:31.171Z,45.81
2023-04-15T19:08:59.617Z,45.36
2023-04-15T19:11:26.384Z,45.47
2023-04-15T19:13:53.440Z,46.32
2023-04-15T19:16:20.537Z,45.17
2023-04-15T19:18:47.533Z,45.51
2023-04-15T19:21:14.593Z,45.45
2023-04-15T19:23:43.053Z,45.70
2023-04-15T19:26:11.931Z,45.94
2023-04-15T19:28:39.022Z,45.91
2023-04-15T19:31:06.131Z,45.17
2023-04-15T19:33:33.194Z,44.53
2023-04-15T19:36:01.559Z,44.74
2023-04-15T19:38:28.356Z,44.68
2023-04-15T19:40:55.298Z,44.81
2023-04-15T19:43:23.827Z,44.96
2023-04-15T19:45:53.110Z,44.80
2023-04-15T19:48:20.160Z,46.43
2023-04-15T19:50:47.180Z,45.95
2023-04-15T19:53:14.344Z,46.40
2023-04-15T19:55:41.601Z,46.24
2023-04-15T19:58:08.528Z,47.16
2023-04-15T20:00:36.913Z,47.08
2023-04-15T20:03:03.802Z,46.71
2023-04-15T20:05:30.893Z,47.51
2023-04-15T20:07:59.829Z,47.63
2023-04-15T20:10:27.267Z,48.01
2023-04-15T20:12:54.273Z,48.51
2023-04-15T20:15:23.482Z,48.78
2023-04-15T20:17:52.293Z,49.33
2023-04-15T20:20:19.822Z,48.42
2023-04-15T20:22:46.945Z,48.15
2023-04-15T20:25:14.074Z,48.85
2023-04-15T20:27:41.112Z,48.19
2023-04-15T20:30:09.030Z,48.92
2023-04-15T20:32:36.510Z,48.22
2023-04-15T20:35:05.909Z,48.94
2023-04-15T20:37:33.620Z,47.71
2023-04-15T20:40:01.636Z,50.25
2023-04-15T20:42:32.552Z,50.26
2023-04-15T20:44:59.711Z,49.54
2023-04-15T20:47:26.820Z,49.86
2023-04-15T20:49:54.314Z,50.33
2023-04-15T20:52:22.664Z,50.02
2023-04-15T20:54:50.075Z,50.20
2023-04-15T20:57:17.310Z,51.11
2023-04-15T20:59:44.271Z,51.00
2023-04-15T21:02:11.629Z,51.88
2023-04-15T21:04:38.948Z,49.52
2023-04-15T21:07:06.035Z,50.77
2023-04-15T21:09:34.555Z,49.27
2023-04-15T21:12:02.297Z,48.62
2023-04-15T21:14:29.516Z,49.66
2023-04-15T21:16:57.014Z,49.60
2023-04-15T21:19:23.997Z,50.99
2023-04-15T21:21:51.052Z,50.43
2023-04-15T21:24:17.969Z,51.46
2023-04-15T21:26:46.356Z,51.75
2023-04-15T21:29:13.840Z,52.09
2023-04-15T21:31:41.077Z,52.62
2023-04-15T21:34:08.417Z,52.87
2023-04-15T21:36:35.372Z,53.17
2023-04-15T21:39:02.465Z,54.61
2023-04-15T21:41:29.683Z,54.01
2023-04-15T21:43:58.132Z,55.79
2023-04-15T21:46:32.749Z,55.46
2023-04-15T21:49:00.543Z,53.03
2023-04-15T21:51:27.800Z,52.73
2023-04-15T21:53:54.911Z,52.32
2023-04-15T21:56:24.397Z,52.25
2023-04-15T21:58:54.924Z,52.16
2023-04-15T22:01:23.631Z,51.91
2023-04-15T22:03:51.129Z,52.50
2023-04-15T22:06:18.564Z,53.27
2023-04-15T22:08:56.225Z,52.27
2023-04-15T22:11:32.507Z,53.11
2023-04-15T22:13:59.762Z,53.08
2023-04-15T22:16:28.638Z,53.47
2023-04-15T22:18:56.147Z,53.62
2023-04-15T22:21:23.396Z,53.23
2023-04-15T22:23:51.301Z,53.37
2023-04-15T22:26:18.266Z,53.24
2023-04-15T22:28:45.362Z,53.81
2023-04-15T22:31:12.392Z,55.49
2023-04-15T22:33:40.784Z,55.87
2023-04-15T22:36:07.901Z,56.73
2023-04-15T22:38:34.900Z,55.33
2023-04-15T22:41:01.916Z,55.91
2023-04-15T22:43:28.945Z,55.94
2023-04-15T22:45:56.630Z,56.32
2023-04-15T22:48:23.818Z,55.88
2023-04-15T22:50:52.177Z,55.57
2023-04-15T22:53:19.331Z,56.22
2023-04-15T22:55:46.786Z,55.85
2023-04-15T22:58:14.030Z,55.04
2023-04-15T23:00:41.151Z,53.41
2023-04-15T23:03:08.383Z,52.91
2023-04-15T23:05:35.552Z,53.33
2023-04-15T23:08:03.932Z,53.67
2023-04-15T23:10:30.739Z,53.74
2023-04-15T23:12:57.690Z,54.02
2023-04-15T23:15:24.646Z,53.33
2023-04-15T23:17:51.794Z,54.87
2023-04-15T23:20:18.742Z,54.15
2023-04-15T23:22:45.851Z,54.34
2023-04-15T23:25:14.251Z,53.90
2023-04-15T23:27:41.220Z,54.80
2023-04-15T23:30:08.918Z,53.13
2023-04-15T23:32:35.996Z,54.66
2023-04-15T23:35:03.332Z,53.97
2023-04-15T23:37:31.416Z,55.59
2023-04-15T23:39:58.393Z,55.52
2023-04-15T23:42:27.184Z,56.43
2023-04-15T23:44:54.111Z,56.28
2023-04-15T23:47:21.496Z,56.89
2023-04-15T23:49:48.519Z,57.22
2023-04-15T23:52:15.485Z,56.99
2023-04-15T23:54:42.535Z,57.41
2023-04-15T23:57:09.590Z,57.45
2023-04-15T23:59:37.896Z,57.23
